sensor_id;sensor_type;location;lat;lon;timestamp;pressure;altitude;pressure_sealevel;temperature
67501;BMP180;54349;52.528;19.760;2022-07-29T00:01:19;101165.40;;;22.40
67501;BMP180;54349;52.528;19.760;2022-07-29T00:03:48;101164.40;;;22.20
67501;BMP180;54349;52.528;19.760;2022-07-29T00:06:16;101158.00;;;22.10
67501;BMP180;54349;52.528;19.760;2022-07-29T00:08:45;101164.60;;;22.20
67501;BMP180;54349;52.528;19.760;2022-07-29T00:11:13;101164.40;;;22.22
67501;BMP180;54349;52.528;19.760;2022-07-29T00:13:41;101167.80;;;22.30
67501;BMP180;54349;52.528;19.760;2022-07-29T00:16:15;101165.80;;;22.32
67501;BMP180;54349;52.528;19.760;2022-07-29T00:18:44;101167.60;;;22.40
67501;BMP180;54349;52.528;19.760;2022-07-29T00:21:12;101170.80;;;22.20
67501;BMP180;54349;52.528;19.760;2022-07-29T00:23:40;101174.80;;;22.20
67501;BMP180;54349;52.528;19.760;2022-07-29T00:26:08;101176.20;;;22.20
67501;BMP180;54349;52.528;19.760;2022-07-29T00:28:36;101177.80;;;22.30
67501;BMP180;54349;52.528;19.760;2022-07-29T00:31:04;101178.80;;;22.30
67501;BMP180;54349;52.528;19.760;2022-07-29T00:33:33;101172.40;;;22.36
67501;BMP180;54349;52.528;19.760;2022-07-29T00:36:01;101179.00;;;22.24
67501;BMP180;54349;52.528;19.760;2022-07-29T00:38:30;101176.40;;;22.10
67501;BMP180;54349;52.528;19.760;2022-07-29T00:40:58;101177.20;;;22.20
67501;BMP180;54349;52.528;19.760;2022-07-29T00:43:26;101178.00;;;22.20
67501;BMP180;54349;52.528;19.760;2022-07-29T00:45:55;101178.40;;;22.30
67501;BMP180;54349;52.528;19.760;2022-07-29T00:48:23;101180.20;;;22.30
67501;BMP180;54349;52.528;19.760;2022-07-29T00:50:51;101179.20;;;22.30
67501;BMP180;54349;52.528;19.760;2022-07-29T00:53:20;101175.80;;;22.10
67501;BMP180;54349;52.528;19.760;2022-07-29T00:55:49;101178.20;;;22.14
67501;BMP180;54349;52.528;19.760;2022-07-29T00:58:22;101180.00;;;22.20
67501;BMP180;54349;52.528;19.760;2022-07-29T01:00:51;101178.80;;;22.26
67501;BMP180;54349;52.528;19.760;2022-07-29T01:03:20;101179.60;;;22.30
67501;BMP180;54349;52.528;19.760;2022-07-29T01:05:48;101177.40;;;22.30
67501;BMP180;54349;52.528;19.760;2022-07-29T01:08:19;101178.00;;;22.10
67501;BMP180;54349;52.528;19.760;2022-07-29T01:10:49;101176.60;;;22.10
67501;BMP180;54349;52.528;19.760;2022-07-29T01:13:19;101179.00;;;22.20
67501;BMP180;54349;52.528;19.760;2022-07-29T01:16:02;101175.00;;;22.20
67501;BMP180;54349;52.528;19.760;2022-07-29T01:18:39;101175.80;;;22.30
67501;BMP180;54349;52.528;19.760;2022-07-29T01:27:38;101170.80;;;22.10
67501;BMP180;54349;52.528;19.760;2022-07-29T01:30:12;101175.40;;;22.20
67501;BMP180;54349;52.528;19.760;2022-07-29T01:32:50;101176.00;;;22.20
67501;BMP180;54349;52.528;19.760;2022-07-29T01:35:33;101176.00;;;22.30
67501;BMP180;54349;52.528;19.760;2022-07-29T01:38:25;101172.20;;;22.30
67501;BMP180;54349;52.528;19.760;2022-07-29T01:41:05;101174.40;;;22.10
67501;BMP180;54349;52.528;19.760;2022-07-29T01:43:50;101180.00;;;22.10
67501;BMP180;54349;52.528;19.760;2022-07-29T01:46:34;101183.40;;;22.14
67501;BMP180;54349;52.528;19.760;2022-07-29T01:49:16;101182.80;;;22.20
67501;BMP180;54349;52.528;19.760;2022-07-29T01:52:01;101187.00;;;22.26
67501;BMP180;54349;52.528;19.760;2022-07-29T01:54:43;101185.80;;;22.30
67501;BMP180;54349;52.528;19.760;2022-07-29T01:57:16;101179.00;;;22.10
67501;BMP180;54349;52.528;19.760;2022-07-29T01:59:48;101180.00;;;22.08
67501;BMP180;54349;52.528;19.760;2022-07-29T02:02:18;101177.20;;;22.10
67501;BMP180;54349;52.528;19.760;2022-07-29T02:04:49;101179.80;;;22.20
67501;BMP180;54349;52.528;19.760;2022-07-29T02:07:21;101183.20;;;22.20
67501;BMP180;54349;52.528;19.760;2022-07-29T02:09:54;101182.00;;;22.26
67501;BMP180;54349;52.528;19.760;2022-07-29T02:12:24;101179.40;;;22.24
67501;BMP180;54349;52.528;19.760;2022-07-29T02:14:56;101175.20;;;22.02
67501;BMP180;54349;52.528;19.760;2022-07-29T02:17:32;101176.40;;;22.10
67501;BMP180;54349;52.528;19.760;2022-07-29T02:20:07;101169.40;;;22.10
67501;BMP180;54349;52.528;19.760;2022-07-29T02:22:39;101173.40;;;22.20
67501;BMP180;54349;52.528;19.760;2022-07-29T02:25:10;101176.20;;;22.20
67501;BMP180;54349;52.528;19.760;2022-07-29T02:27:42;101181.00;;;22.24
67501;BMP180;54349;52.528;19.760;2022-07-29T02:30:12;101176.80;;;22.10
67501;BMP180;54349;52.528;19.760;2022-07-29T02:32:42;101180.60;;;22.00
67501;BMP180;54349;52.528;19.760;2022-07-29T02:35:15;101174.00;;;22.10
67501;BMP180;54349;52.528;19.760;2022-07-29T02:37:46;101173.60;;;22.10
67501;BMP180;54349;52.528;19.760;2022-07-29T02:40:38;101177.80;;;22.20
67501;BMP180;54349;52.528;19.760;2022-07-29T02:43:09;101179.60;;;22.20
67501;BMP180;54349;52.528;19.760;2022-07-29T02:45:38;101184.60;;;22.22
67501;BMP180;54349;52.528;19.760;2022-07-29T02:48:15;101179.40;;;22.00
67501;BMP180;54349;52.528;19.760;2022-07-29T02:50:55;101179.80;;;22.00
67501;BMP180;54349;52.528;19.760;2022-07-29T02:53:33;101173.60;;;22.10
67501;BMP180;54349;52.528;19.760;2022-07-29T02:56:10;101176.40;;;22.12
67501;BMP180;54349;52.528;19.760;2022-07-29T02:58:56;101174.40;;;22.20
67501;BMP180;54349;52.528;19.760;2022-07-29T03:01:30;101175.40;;;22.20
67501;BMP180;54349;52.528;19.760;2022-07-29T03:04:03;101170.80;;;22.20
67501;BMP180;54349;52.528;19.760;2022-07-29T03:06:34;101168.60;;;22.00
67501;BMP180;54349;52.528;19.760;2022-07-29T03:09:10;101170.20;;;22.06
67501;BMP180;54349;52.528;19.760;2022-07-29T03:11:42;101170.60;;;22.10
67501;BMP180;54349;52.528;19.760;2022-07-29T03:14:18;101170.40;;;22.16
67501;BMP180;54349;52.528;19.760;2022-07-29T03:16:49;101169.60;;;22.20
67501;BMP180;54349;52.528;19.760;2022-07-29T03:19:19;101170.40;;;22.20
67501;BMP180;54349;52.528;19.760;2022-07-29T03:21:49;101164.80;;;22.20
67501;BMP180;54349;52.528;19.760;2022-07-29T03:24:30;101166.20;;;22.00
67501;BMP180;54349;52.528;19.760;2022-07-29T03:27:00;101168.00;;;22.00
67501;BMP180;54349;52.528;19.760;2022-07-29T03:29:29;101172.40;;;22.10
67501;BMP180;54349;52.528;19.760;2022-07-29T03:32:05;101171.60;;;22.10
67501;BMP180;54349;52.528;19.760;2022-07-29T03:34:36;101172.40;;;22.20
67501;BMP180;54349;52.528;19.760;2022-07-29T03:37:06;101180.40;;;22.20
67501;BMP180;54349;52.528;19.760;2022-07-29T03:39:40;101182.40;;;22.20
67501;BMP180;54349;52.528;19.760;2022-07-29T03:42:13;101175.80;;;22.00
67501;BMP180;54349;52.528;19.760;2022-07-29T03:44:46;101177.80;;;22.00
67501;BMP180;54349;52.528;19.760;2022-07-29T03:47:17;101181.20;;;22.00
67501;BMP180;54349;52.528;19.760;2022-07-29T03:49:52;101181.20;;;22.10
67501;BMP180;54349;52.528;19.760;2022-07-29T03:52:22;101181.60;;;22.10
67501;BMP180;54349;52.528;19.760;2022-07-29T03:54:50;101180.60;;;22.20
67501;BMP180;54349;52.528;19.760;2022-07-29T03:57:24;101184.20;;;22.20
67501;BMP180;54349;52.528;19.760;2022-07-29T03:59:55;101179.40;;;22.00
67501;BMP180;54349;52.528;19.760;2022-07-29T04:02:24;101178.80;;;22.00
67501;BMP180;54349;52.528;19.760;2022-07-29T04:04:57;101177.60;;;22.00
67501;BMP180;54349;52.528;19.760;2022-07-29T04:07:26;101176.40;;;22.10
67501;BMP180;54349;52.528;19.760;2022-07-29T04:09:54;101175.40;;;22.10
67501;BMP180;54349;52.528;19.760;2022-07-29T04:12:22;101180.40;;;22.20
67501;BMP180;54349;52.528;19.760;2022-07-29T04:14:50;101179.20;;;22.20
67501;BMP180;54349;52.528;19.760;2022-07-29T04:17:18;101173.40;;;22.06
67501;BMP180;54349;52.528;19.760;2022-07-29T04:19:46;101179.20;;;22.00
67501;BMP180;54349;52.528;19.760;2022-07-29T04:22:14;101185.00;;;22.00
67501;BMP180;54349;52.528;19.760;2022-07-29T04:24:42;101190.40;;;22.10
67501;BMP180;54349;52.528;19.760;2022-07-29T04:27:11;101191.80;;;22.10
67501;BMP180;54349;52.528;19.760;2022-07-29T04:29:39;101197.00;;;22.20
67501;BMP180;54349;52.528;19.760;2022-07-29T04:32:25;101203.60;;;22.20
67501;BMP180;54349;52.528;19.760;2022-07-29T04:34:53;101203.60;;;22.20
67501;BMP180;54349;52.528;19.760;2022-07-29T04:37:21;101204.00;;;22.00
67501;BMP180;54349;52.528;19.760;2022-07-29T04:39:49;101199.40;;;22.00
67501;BMP180;54349;52.528;19.760;2022-07-29T04:42:19;101198.80;;;22.10
67501;BMP180;54349;52.528;19.760;2022-07-29T04:44:54;101208.60;;;22.10
67501;BMP180;54349;52.528;19.760;2022-07-29T04:47:22;101212.20;;;22.20
67501;BMP180;54349;52.528;19.760;2022-07-29T04:49:50;101213.20;;;22.20
67501;BMP180;54349;52.528;19.760;2022-07-29T04:52:19;101207.80;;;22.10
67501;BMP180;54349;52.528;19.760;2022-07-29T04:54:47;101212.60;;;22.00
67501;BMP180;54349;52.528;19.760;2022-07-29T04:57:16;101210.60;;;22.00
67501;BMP180;54349;52.528;19.760;2022-07-29T04:59:47;101206.60;;;22.10
67501;BMP180;54349;52.528;19.760;2022-07-29T05:02:15;101211.40;;;22.10
67501;BMP180;54349;52.528;19.760;2022-07-29T05:04:43;101211.60;;;22.20
67501;BMP180;54349;52.528;19.760;2022-07-29T05:07:11;101209.60;;;22.20
67501;BMP180;54349;52.528;19.760;2022-07-29T05:09:40;101204.20;;;22.10
67501;BMP180;54349;52.528;19.760;2022-07-29T05:12:08;101209.60;;;22.00
67501;BMP180;54349;52.528;19.760;2022-07-29T05:14:37;101209.80;;;22.00
67501;BMP180;54349;52.528;19.760;2022-07-29T05:17:06;101208.40;;;22.10
67501;BMP180;54349;52.528;19.760;2022-07-29T05:19:34;101215.00;;;22.10
67501;BMP180;54349;52.528;19.760;2022-07-29T05:22:06;101211.40;;;22.20
67501;BMP180;54349;52.528;19.760;2022-07-29T05:24:35;101213.00;;;22.20
67501;BMP180;54349;52.528;19.760;2022-07-29T05:27:03;101210.00;;;22.10
67501;BMP180;54349;52.528;19.760;2022-07-29T05:29:32;101212.00;;;22.00
67501;BMP180;54349;52.528;19.760;2022-07-29T05:32:12;101212.20;;;22.06
67501;BMP180;54349;52.528;19.760;2022-07-29T05:34:41;101205.60;;;22.10
67501;BMP180;54349;52.528;19.760;2022-07-29T05:37:21;101212.60;;;22.20
67501;BMP180;54349;52.528;19.760;2022-07-29T05:39:49;101212.40;;;22.20
67501;BMP180;54349;52.528;19.760;2022-07-29T05:42:25;101213.20;;;22.14
67501;BMP180;54349;52.528;19.760;2022-07-29T05:44:53;101210.40;;;22.00
67501;BMP180;54349;52.528;19.760;2022-07-29T05:47:22;101204.80;;;22.00
67501;BMP180;54349;52.528;19.760;2022-07-29T05:49:51;101202.60;;;22.10
67501;BMP180;54349;52.528;19.760;2022-07-29T05:52:19;101204.40;;;22.10
67501;BMP180;54349;52.528;19.760;2022-07-29T05:54:48;101213.00;;;22.20
67501;BMP180;54349;52.528;19.760;2022-07-29T05:57:20;101213.60;;;22.20
67501;BMP180;54349;52.528;19.760;2022-07-29T05:59:49;101215.00;;;22.00
67501;BMP180;54349;52.528;19.760;2022-07-29T06:02:18;101216.40;;;22.00
67501;BMP180;54349;52.528;19.760;2022-07-29T06:04:46;101208.00;;;22.08
67501;BMP180;54349;52.528;19.760;2022-07-29T06:07:15;101205.20;;;22.10
67501;BMP180;54349;52.528;19.760;2022-07-29T06:09:44;101211.00;;;22.18
67501;BMP180;54349;52.528;19.760;2022-07-29T06:12:12;101211.60;;;22.20
67501;BMP180;54349;52.528;19.760;2022-07-29T06:14:40;101203.00;;;22.10
67501;BMP180;54349;52.528;19.760;2022-07-29T06:17:08;101206.80;;;22.00
67501;BMP180;54349;52.528;19.760;2022-07-29T06:19:39;101201.40;;;22.08
67501;BMP180;54349;52.528;19.760;2022-07-29T06:22:07;101199.60;;;22.10
67501;BMP180;54349;52.528;19.760;2022-07-29T06:24:36;101203.60;;;22.20
67501;BMP180;54349;52.528;19.760;2022-07-29T06:27:05;101207.20;;;22.20
67501;BMP180;54349;52.528;19.760;2022-07-29T06:29:33;101205.60;;;22.16
67501;BMP180;54349;52.528;19.760;2022-07-29T06:32:03;101206.40;;;22.00
67501;BMP180;54349;52.528;19.760;2022-07-29T06:34:31;101202.80;;;22.10
67501;BMP180;54349;52.528;19.760;2022-07-29T06:36:59;101201.60;;;22.10
67501;BMP180;54349;52.528;19.760;2022-07-29T06:39:27;101204.80;;;22.20
67501;BMP180;54349;52.528;19.760;2022-07-29T06:41:55;101207.40;;;22.20
67501;BMP180;54349;52.528;19.760;2022-07-29T06:44:25;101204.40;;;22.20
67501;BMP180;54349;52.528;19.760;2022-07-29T06:46:53;101205.80;;;22.04
67501;BMP180;54349;52.528;19.760;2022-07-29T06:49:22;101208.00;;;22.10
67501;BMP180;54349;52.528;19.760;2022-07-29T06:51:52;101210.40;;;22.14
67501;BMP180;54349;52.528;19.760;2022-07-29T06:54:20;101208.40;;;22.20
67501;BMP180;54349;52.528;19.760;2022-07-29T06:56:49;101209.60;;;22.24
67501;BMP180;54349;52.528;19.760;2022-07-29T06:59:18;101205.20;;;22.12
67501;BMP180;54349;52.528;19.760;2022-07-29T07:01:52;101201.00;;;22.10
67501;BMP180;54349;52.528;19.760;2022-07-29T07:04:20;101205.00;;;22.14
67501;BMP180;54349;52.528;19.760;2022-07-29T07:06:48;101206.00;;;22.20
67501;BMP180;54349;52.528;19.760;2022-07-29T07:09:16;101204.00;;;22.22
67501;BMP180;54349;52.528;19.760;2022-07-29T07:11:44;101200.60;;;22.30
67501;BMP180;54349;52.528;19.760;2022-07-29T07:14:16;101193.00;;;22.10
67501;BMP180;54349;52.528;19.760;2022-07-29T07:16:45;101194.20;;;22.10
67501;BMP180;54349;52.528;19.760;2022-07-29T07:19:14;101189.60;;;22.20
67501;BMP180;54349;52.528;19.760;2022-07-29T07:21:42;101193.20;;;22.20
67501;BMP180;54349;52.528;19.760;2022-07-29T07:24:10;101193.40;;;22.30
67501;BMP180;54349;52.528;19.760;2022-07-29T07:26:39;101193.00;;;22.20
67501;BMP180;54349;52.528;19.760;2022-07-29T07:29:07;101191.40;;;22.20
67501;BMP180;54349;52.528;19.760;2022-07-29T07:31:37;101196.20;;;22.20
67501;BMP180;54349;52.528;19.760;2022-07-29T07:34:05;101196.00;;;22.28
67501;BMP180;54349;52.528;19.760;2022-07-29T07:36:33;101193.60;;;22.30
67501;BMP180;54349;52.528;19.760;2022-07-29T07:39:02;101193.00;;;22.20
67501;BMP180;54349;52.528;19.760;2022-07-29T07:41:31;101194.40;;;22.10
67501;BMP180;54349;52.528;19.760;2022-07-29T07:43:59;101192.40;;;22.10
67501;BMP180;54349;52.528;19.760;2022-07-29T07:46:27;101198.20;;;22.20
67501;BMP180;54349;52.528;19.760;2022-07-29T07:48:56;101191.40;;;22.20
67501;BMP180;54349;52.528;19.760;2022-07-29T07:51:24;101192.60;;;22.30
67501;BMP180;54349;52.528;19.760;2022-07-29T07:53:53;101185.00;;;22.20
67501;BMP180;54349;52.528;19.760;2022-07-29T07:56:21;101187.00;;;22.20
67501;BMP180;54349;52.528;19.760;2022-07-29T07:58:49;101184.80;;;22.30
67501;BMP180;54349;52.528;19.760;2022-07-29T08:01:17;101185.20;;;22.30
67501;BMP180;54349;52.528;19.760;2022-07-29T08:03:47;101184.20;;;22.36
67501;BMP180;54349;52.528;19.760;2022-07-29T08:06:15;101183.60;;;22.30
67501;BMP180;54349;52.528;19.760;2022-07-29T08:08:44;101182.40;;;22.30
67501;BMP180;54349;52.528;19.760;2022-07-29T08:11:12;101180.20;;;22.30
67501;BMP180;54349;52.528;19.760;2022-07-29T08:13:41;101180.60;;;22.40
67501;BMP180;54349;52.528;19.760;2022-07-29T08:16:09;101182.60;;;22.40
67501;BMP180;54349;52.528;19.760;2022-07-29T08:18:44;101181.80;;;22.38
67501;BMP180;54349;52.528;19.760;2022-07-29T08:21:13;101188.20;;;22.30
67501;BMP180;54349;52.528;19.760;2022-07-29T08:23:44;101184.80;;;22.34
67501;BMP180;54349;52.528;19.760;2022-07-29T08:26:20;101187.20;;;22.40
67501;BMP180;54349;52.528;19.760;2022-07-29T08:28:50;101194.80;;;22.48
67501;BMP180;54349;52.528;19.760;2022-07-29T08:31:18;101197.60;;;22.50
67501;BMP180;54349;52.528;19.760;2022-07-29T08:33:46;101199.60;;;22.34
67501;BMP180;54349;52.528;19.760;2022-07-29T08:36:14;101195.40;;;22.40
67501;BMP180;54349;52.528;19.760;2022-07-29T08:38:42;101197.00;;;22.40
67501;BMP180;54349;52.528;19.760;2022-07-29T08:41:10;101196.20;;;22.48
67501;BMP180;54349;52.528;19.760;2022-07-29T08:43:40;101196.00;;;22.50
67501;BMP180;54349;52.528;19.760;2022-07-29T08:46:08;101195.20;;;22.48
67501;BMP180;54349;52.528;19.760;2022-07-29T08:48:38;101191.20;;;22.40
67501;BMP180;54349;52.528;19.760;2022-07-29T08:51:07;101190.20;;;22.40
67501;BMP180;54349;52.528;19.760;2022-07-29T08:53:37;101191.20;;;22.50
67501;BMP180;54349;52.528;19.760;2022-07-29T08:56:06;101192.20;;;22.58
67501;BMP180;54349;52.528;19.760;2022-07-29T08:58:35;101188.60;;;22.50
67501;BMP180;54349;52.528;19.760;2022-07-29T09:01:07;101188.40;;;22.40
67501;BMP180;54349;52.528;19.760;2022-07-29T09:03:41;101186.80;;;22.50
67501;BMP180;54349;52.528;19.760;2022-07-29T09:06:18;101177.20;;;22.50
67501;BMP180;54349;52.528;19.760;2022-07-29T09:08:48;101183.60;;;22.60
67501;BMP180;54349;52.528;19.760;2022-07-29T09:11:16;101177.40;;;22.60
67501;BMP180;54349;52.528;19.760;2022-07-29T09:13:44;101177.20;;;22.50
67501;BMP180;54349;52.528;19.760;2022-07-29T09:16:12;101176.80;;;22.50
67501;BMP180;54349;52.528;19.760;2022-07-29T09:19:01;101172.60;;;22.58
67501;BMP180;54349;52.528;19.760;2022-07-29T09:21:40;101165.80;;;22.60
67501;BMP180;54349;52.528;19.760;2022-07-29T09:27:07;101162.40;;;22.60
67501;BMP180;54349;52.528;19.760;2022-07-29T09:29:36;101160.80;;;22.50
67501;BMP180;54349;52.528;19.760;2022-07-29T09:32:09;101166.80;;;22.60
67501;BMP180;54349;52.528;19.760;2022-07-29T09:34:38;101168.60;;;22.60
67501;BMP180;54349;52.528;19.760;2022-07-29T09:37:06;101167.60;;;22.70
67501;BMP180;54349;52.528;19.760;2022-07-29T09:39:38;101168.60;;;22.70
67501;BMP180;54349;52.528;19.760;2022-07-29T09:42:29;101161.40;;;22.60
67501;BMP180;54349;52.528;19.760;2022-07-29T09:44:57;101155.20;;;22.60
67501;BMP180;54349;52.528;19.760;2022-07-29T09:47:47;101151.80;;;22.64
67501;BMP180;54349;52.528;19.760;2022-07-29T09:50:17;101159.00;;;22.70
67501;BMP180;54349;52.528;19.760;2022-07-29T09:52:52;101152.80;;;22.80
67501;BMP180;54349;52.528;19.760;2022-07-29T09:55:23;101155.00;;;22.70
67501;BMP180;54349;52.528;19.760;2022-07-29T09:57:51;101146.60;;;22.60
67501;BMP180;54349;52.528;19.760;2022-07-29T10:00:20;101153.20;;;22.60
67501;BMP180;54349;52.528;19.760;2022-07-29T10:03:00;101147.20;;;22.70
67501;BMP180;54349;52.528;19.760;2022-07-29T10:05:29;101148.40;;;22.80
67501;BMP180;54349;52.528;19.760;2022-07-29T10:08:04;101152.00;;;22.80
67501;BMP180;54349;52.528;19.760;2022-07-29T10:10:37;101150.40;;;22.70
67501;BMP180;54349;52.528;19.760;2022-07-29T10:13:12;101153.80;;;22.62
67501;BMP180;54349;52.528;19.760;2022-07-29T10:15:44;101159.40;;;22.70
67501;BMP180;54349;52.528;19.760;2022-07-29T10:18:14;101160.40;;;22.80
67501;BMP180;54349;52.528;19.760;2022-07-29T10:20:45;101156.40;;;22.82
67501;BMP180;54349;52.528;19.760;2022-07-29T10:23:13;101150.60;;;22.80
67501;BMP180;54349;52.528;19.760;2022-07-29T10:25:42;101139.20;;;22.70
67501;BMP180;54349;52.528;19.760;2022-07-29T10:28:13;101135.00;;;22.70
67501;BMP180;54349;52.528;19.760;2022-07-29T10:30:45;101138.40;;;22.72
67501;BMP180;54349;52.528;19.760;2022-07-29T10:34:07;101133.60;;;22.80
67501;BMP180;54349;52.528;19.760;2022-07-29T10:37:16;101130.20;;;22.90
67501;BMP180;54349;52.528;19.760;2022-07-29T10:40:22;101133.20;;;22.70
67501;BMP180;54349;52.528;19.760;2022-07-29T10:43:23;101128.80;;;22.70
67501;BMP180;54349;52.528;19.760;2022-07-29T10:45:58;101128.60;;;22.80
67501;BMP180;54349;52.528;19.760;2022-07-29T10:48:27;101128.00;;;22.90
67501;BMP180;54349;52.528;19.760;2022-07-29T10:51:04;101133.20;;;22.90
67501;BMP180;54349;52.528;19.760;2022-07-29T10:53:46;101131.00;;;22.90
67501;BMP180;54349;52.528;19.760;2022-07-29T10:56:26;101125.40;;;22.80
67501;BMP180;54349;52.528;19.760;2022-07-29T11:01:53;101121.60;;;22.80
67501;BMP180;54349;52.528;19.760;2022-07-29T11:07:16;101112.20;;;23.00
67501;BMP180;54349;52.528;19.760;2022-07-29T11:15:14;101103.60;;;22.80
67501;BMP180;54349;52.528;19.760;2022-07-29T11:20:50;101097.40;;;22.90
67501;BMP180;54349;52.528;19.760;2022-07-29T11:23:31;101090.60;;;23.00
67501;BMP180;54349;52.528;19.760;2022-07-29T11:26:17;101089.00;;;22.88
67501;BMP180;54349;52.528;19.760;2022-07-29T11:31:37;101085.00;;;22.80
67501;BMP180;54349;52.528;19.760;2022-07-29T11:34:34;101096.40;;;22.90
67501;BMP180;54349;52.528;19.760;2022-07-29T11:45:22;101104.60;;;22.80
67501;BMP180;54349;52.528;19.760;2022-07-29T11:48:18;101101.20;;;22.90
67501;BMP180;54349;52.528;19.760;2022-07-29T11:50:59;101102.80;;;23.00
67501;BMP180;54349;52.528;19.760;2022-07-29T11:53:27;101102.60;;;23.08
67501;BMP180;54349;52.528;19.760;2022-07-29T11:56:00;101104.20;;;23.00
67501;BMP180;54349;52.528;19.760;2022-07-29T11:58:30;101097.80;;;22.80
67501;BMP180;54349;52.528;19.760;2022-07-29T12:01:00;101096.80;;;22.82
67501;BMP180;54349;52.528;19.760;2022-07-29T12:03:32;101089.60;;;22.90
67501;BMP180;54349;52.528;19.760;2022-07-29T12:06:12;101088.40;;;23.00
67501;BMP180;54349;52.528;19.760;2022-07-29T12:09:08;101090.80;;;23.00
67501;BMP180;54349;52.528;19.760;2022-07-29T12:11:41;101090.40;;;22.92
67501;BMP180;54349;52.528;19.760;2022-07-29T12:14:31;101094.40;;;22.90
67501;BMP180;54349;52.528;19.760;2022-07-29T12:17:01;101090.40;;;22.94
67501;BMP180;54349;52.528;19.760;2022-07-29T12:19:42;101085.60;;;23.00
67501;BMP180;54349;52.528;19.760;2022-07-29T12:22:11;101080.00;;;23.10
67501;BMP180;54349;52.528;19.760;2022-07-29T12:24:44;101083.00;;;23.04
67501;BMP180;54349;52.528;19.760;2022-07-29T12:27:17;101078.00;;;22.90
67501;BMP180;54349;52.528;19.760;2022-07-29T12:30:05;101079.40;;;22.80
67501;BMP180;54349;52.528;19.760;2022-07-29T12:32:45;101072.40;;;22.80
67501;BMP180;54349;52.528;19.760;2022-07-29T12:35:19;101071.40;;;22.90
67501;BMP180;54349;52.528;19.760;2022-07-29T12:37:49;101068.80;;;23.00
67501;BMP180;54349;52.528;19.760;2022-07-29T12:40:20;101067.20;;;23.10
67501;BMP180;54349;52.528;19.760;2022-07-29T12:43:09;101074.80;;;23.00
67501;BMP180;54349;52.528;19.760;2022-07-29T12:45:41;101065.00;;;22.90
67501;BMP180;54349;52.528;19.760;2022-07-29T12:48:11;101056.60;;;22.90
67501;BMP180;54349;52.528;19.760;2022-07-29T12:51:11;101061.00;;;23.00
67501;BMP180;54349;52.528;19.760;2022-07-29T12:56:31;101053.80;;;23.20
67501;BMP180;54349;52.528;19.760;2022-07-29T12:59:19;101050.60;;;23.16
67501;BMP180;54349;52.528;19.760;2022-07-29T13:01:51;101049.60;;;23.00
67501;BMP180;54349;52.528;19.760;2022-07-29T13:04:32;101046.40;;;22.90
67501;BMP180;54349;52.528;19.760;2022-07-29T13:07:05;101039.60;;;22.90
67501;BMP180;54349;52.528;19.760;2022-07-29T13:09:43;101033.40;;;23.00
67501;BMP180;54349;52.528;19.760;2022-07-29T13:12:13;101036.00;;;23.10
67501;BMP180;54349;52.528;19.760;2022-07-29T13:14:47;101037.40;;;23.20
67501;BMP180;54349;52.528;19.760;2022-07-29T13:17:19;101028.60;;;23.20
67501;BMP180;54349;52.528;19.760;2022-07-29T13:20:04;101026.80;;;23.10
67501;BMP180;54349;52.528;19.760;2022-07-29T13:22:35;101019.00;;;22.98
67501;BMP180;54349;52.528;19.760;2022-07-29T13:25:04;101024.80;;;23.00
67501;BMP180;54349;52.528;19.760;2022-07-29T13:27:37;101019.60;;;23.08
67501;BMP180;54349;52.528;19.760;2022-07-29T13:30:08;101017.20;;;23.12
67501;BMP180;54349;52.528;19.760;2022-07-29T13:32:38;101015.00;;;23.20
67501;BMP180;54349;52.528;19.760;2022-07-29T13:35:08;101006.20;;;23.10
67501;BMP180;54349;52.528;19.760;2022-07-29T13:37:38;101011.40;;;23.00
67501;BMP180;54349;52.528;19.760;2022-07-29T13:40:08;101015.20;;;22.98
67501;BMP180;54349;52.528;19.760;2022-07-29T13:42:37;101011.60;;;23.00
67501;BMP180;54349;52.528;19.760;2022-07-29T13:45:09;101011.40;;;23.10
67501;BMP180;54349;52.528;19.760;2022-07-29T13:47:39;101011.60;;;23.20
67501;BMP180;54349;52.528;19.760;2022-07-29T13:50:14;101012.00;;;23.20
67501;BMP180;54349;52.528;19.760;2022-07-29T13:52:42;101009.40;;;23.10
67501;BMP180;54349;52.528;19.760;2022-07-29T13:55:10;101008.60;;;23.00
67501;BMP180;54349;52.528;19.760;2022-07-29T13:57:38;101009.80;;;23.00
67501;BMP180;54349;52.528;19.760;2022-07-29T14:00:08;101010.00;;;23.10
67501;BMP180;54349;52.528;19.760;2022-07-29T14:02:36;101007.80;;;23.14
67501;BMP180;54349;52.528;19.760;2022-07-29T14:05:07;101010.80;;;23.20
67501;BMP180;54349;52.528;19.760;2022-07-29T14:07:38;101006.80;;;23.10
67501;BMP180;54349;52.528;19.760;2022-07-29T14:10:08;101006.00;;;23.00
67501;BMP180;54349;52.528;19.760;2022-07-29T14:12:36;101003.40;;;23.00
67501;BMP180;54349;52.528;19.760;2022-07-29T14:15:05;101004.40;;;23.00
67501;BMP180;54349;52.528;19.760;2022-07-29T14:17:34;101005.40;;;23.10
67501;BMP180;54349;52.528;19.760;2022-07-29T14:20:04;101005.40;;;23.20
67501;BMP180;54349;52.528;19.760;2022-07-29T14:22:32;101004.60;;;23.20
67501;BMP180;54349;52.528;19.760;2022-07-29T14:25:09;101005.40;;;23.10
67501;BMP180;54349;52.528;19.760;2022-07-29T14:27:43;101004.40;;;23.00
67501;BMP180;54349;52.528;19.760;2022-07-29T14:30:12;101005.20;;;22.90
67501;BMP180;54349;52.528;19.760;2022-07-29T14:32:41;101005.20;;;23.00
67501;BMP180;54349;52.528;19.760;2022-07-29T14:35:09;101001.80;;;23.10
67501;BMP180;54349;52.528;19.760;2022-07-29T14:37:37;101001.80;;;23.20
67501;BMP180;54349;52.528;19.760;2022-07-29T14:40:09;100993.00;;;23.20
67501;BMP180;54349;52.528;19.760;2022-07-29T14:42:39;100992.00;;;23.10
67501;BMP180;54349;52.528;19.760;2022-07-29T14:45:09;100992.40;;;23.00
67501;BMP180;54349;52.528;19.760;2022-07-29T14:47:38;100985.20;;;23.00
67501;BMP180;54349;52.528;19.760;2022-07-29T14:50:08;100985.40;;;23.10